ADDS METAR Data INFO
IDs: Format: Raw Decoded Include TAF

Data at: 0154 UTC 18 Oct 2017

KPTV 180056Z AUTO 33003KT 3SM HZ CLR 27/06 A3001 RMK AO2 SLP173 T02670061 TSNO
KPTV 172356Z AUTO 34004KT 8SM CLR 29/06 A3002 RMK AO2 SLP173 T02940056 10300 20250 56009
KPTV 172256Z AUTO 32005KT 6SM HZ CLR 29/06 A3002 RMK AO2 SLP175 T02890061
KPTV 172156Z AUTO 32007KT 6SM HZ CLR 30/07 A3003 RMK AO2 SLP177 T03000067
KPTV 172056Z AUTO 33007KT 6SM HZ CLR 28/08 A3004 RMK AO2 SLP182 T02830078 58018
KPTV 171956Z AUTO 32006KT 7SM CLR 27/07 A3007 RMK AO2 SLP192 T02720067
KPTV 171856Z AUTO 25005KT 7SM CLR 25/08 A3009 RMK AO2 SLP198 T02500078
KPTV 171756Z AUTO 24004KT 7SM CLR 25/06 A3010 RMK AO2 SLP202 T02500061 10250 20094 58000
KPTV 171656Z AUTO 14003KT 8SM CLR 22/05 A3011 RMK AO2 SLP205 T02170050
KPTV 171556Z AUTO 00000KT 9SM CLR 18/06 A3011 RMK AO2 SLP208 T01780056
KPTV 171456Z AUTO 00000KT 4SM HZ CLR 12/04 A3010 RMK AO2 SLP205 T01170039 51008
KPTV 171356Z AUTO 10005KT 10SM CLR 11/04 A3009 RMK AO2 SLP201 T01110039
KPTV 171256Z AUTO 17004KT 10SM CLR 10/03 A3009 RMK AO2 SLP199 T01000033
KPTV 171156Z AUTO 10004KT 10SM CLR 11/05 A3008 RMK AO2 SLP193 T01110050 10156 20100 55004
KPTV 171056Z AUTO 00000KT 10SM CLR 11/05 A3007 RMK AO2 SLP193 T01060050
KPTV 170956Z AUTO 22004KT 10SM CLR 11/04 A3009 RMK AO2 SLP198 T01060039
KPTV 170856Z AUTO 08005KT 10SM CLR 14/04 A3009 RMK AO2 SLP197 T01440039 58008
KPTV 170756Z AUTO 08005KT 10SM CLR 14/04 A3010 RMK AO2 SLP200 T01440044
KPTV 170656Z AUTO 10008KT 10SM CLR 14/06 A3011 RMK AO2 SLP204 T01440061 402940078
KPTV 170456Z AUTO 13004KT 10SM CLR 16/06 A3010 RMK AO2 SLP202 T01560056
KPTV 170356Z AUTO 14005KT 10SM CLR 16/07 A3009 RMK AO2 SLP201 T01610067
KPTV 170256Z AUTO 11005KT 10SM CLR 18/08 A3008 RMK AO2 SLP198 T01830083 53004
KPTV 170156Z AUTO 00000KT 9SM CLR 22/08 A3007 RMK AO2 SLP193 T02220078